Time;durP1;ratioP1;P1;durP2;ratioP2;P2;SDS_P1;SDS_P2;PMS_P1;PMS_P2;Temp;Humidity;BMP_temperature;BMP_pressure;BME280_temperature;BME280_humidity;BME280_pressure;Samples;Min_cycle;Max_cycle;Signal;HPM_P1;HPM_P2
2021/04/06 00:00:23;;;;;;;2.30;0.77;;;1.80;90.90;;;;;;5093170;28;20511;-69
2021/04/06 00:02:53;;;;;;;;;;;1.70;91.00;;;;;;5094391;28;20056;-69
2021/04/06 00:05:21;;;;;;;2.92;0.80;;;1.70;91.60;;;;;;5093854;28;20305;-69
2021/04/06 00:07:49;;;;;;;3.42;0.70;;;1.70;90.80;;;;;;5092551;28;20063;-69
2021/04/06 00:10:24;;;;;;;5.90;1.00;;;1.70;91.10;;;;;;5093893;28;20132;-69
2021/04/06 00:12:53;;;;;;;5.88;1.42;;;1.70;91.10;;;;;;5093693;28;20067;-69
2021/04/06 00:15:20;;;;;;;4.60;1.10;;;1.70;91.30;;;;;;5093117;28;20051;-69
2021/04/06 00:17:48;;;;;;;6.50;1.10;;;1.70;91.00;;;;;;5093485;28;20092;-69
2021/04/06 00:20:16;;;;;;;7.20;1.60;;;1.70;91.10;;;;;;5092628;28;20048;-68
2021/04/06 00:22:43;;;;;;;9.73;1.65;;;1.80;91.10;;;;;;5093568;28;20048;-68
2021/04/06 00:25:18;;;;;;;9.00;1.42;;;1.80;90.90;;;;;;5093814;28;20052;-69
2021/04/06 00:27:46;;;;;;;9.98;1.55;;;1.80;90.90;;;;;;5092835;28;20045;-68
2021/04/06 00:30:15;;;;;;;8.52;1.35;;;1.90;90.80;;;;;;5093423;28;20052;-69
2021/04/06 00:32:43;;;;;;;21.45;2.45;;;1.90;90.70;;;;;;5093222;28;20153;-69
2021/04/06 00:35:10;;;;;;;11.07;1.63;;;2.00;90.50;;;;;;5093271;28;20074;-69
2021/04/06 00:37:44;;;;;;;8.95;1.65;;;2.10;90.40;;;;;;5093394;28;20048;-68
2021/04/06 00:40:12;;;;;;;10.55;2.05;;;2.20;90.30;;;;;;5093575;28;20055;-69
2021/04/06 00:42:40;;;;;;;9.77;1.67;;;2.30;90.30;;;;;;5092687;28;20097;-69
2021/04/06 00:45:12;;;;;;;10.90;2.25;;;2.30;90.20;;;;;;5093288;28;20048;-69
2021/04/06 00:47:38;;;;;;;11.95;1.95;;;2.40;90.10;;;;;;5093295;28;20059;-69
2021/04/06 00:50:14;;;;;;;5.93;1.45;;;2.50;90.10;;;;;;5092459;28;20504;-69
2021/04/06 00:52:44;;;;;;;5.23;1.40;;;2.60;90.10;;;;;;5092973;28;20401;-69
2021/04/06 00:55:15;;;;;;;11.93;1.63;;;2.60;90.00;;;;;;5093495;28;20293;-69
2021/04/06 00:57:43;;;;;;;8.07;1.70;;;2.70;90.00;;;;;;5092693;28;20135;-69
2021/04/06 01:00:20;;;;;;;11.70;1.90;;;2.70;90.00;;;;;;5093335;28;20295;-69
2021/04/06 01:03:05;;;;;;;10.20;2.00;;;2.70;90.00;;;;;;5092116;28;20298;-69
2021/04/06 01:05:55;;;;;;;13.35;2.03;;;2.70;90.00;;;;;;5092386;28;20306;-69
2021/04/06 01:08:25;;;;;;;7.75;1.90;;;2.50;90.20;;;;;;5092518;28;20488;-68
2021/04/06 01:10:51;;;;;;;10.07;1.70;;;2.30;90.40;;;;;;5092031;28;20048;-69
2021/04/06 01:13:18;;;;;;;8.43;1.67;;;2.20;90.50;;;;;;5092559;28;20044;-69
2021/04/06 01:15:43;;;;;;;12.07;2.47;;;2.20;90.70;;;;;;5092643;28;20048;-68
2021/04/06 01:18:09;;;;;;;11.27;2.10;;;2.20;90.60;;;;;;5091135;28;20417;-69
2021/04/06 01:20:35;;;;;;;9.60;1.73;;;2.20;90.70;;;;;;5092164;28;20155;-69
2021/04/06 01:23:08;;;;;;;9.45;1.85;;;2.20;90.70;;;;;;5092698;28;20059;-68
2021/04/06 01:25:34;;;;;;;14.13;2.35;;;2.10;90.80;;;;;;5091474;28;20051;-69
2021/04/06 01:28:08;;;;;;;10.13;1.53;;;2.10;90.80;;;;;;5092721;28;20443;-69
2021/04/06 01:30:45;;;;;;;8.23;1.90;;;2.10;90.70;;;;;;5091248;28;20048;-69
2021/04/06 01:33:16;;;;;;;11.23;2.15;;;2.10;90.70;;;;;;5092122;28;20063;-70
2021/04/06 01:35:46;;;;;;;10.18;1.73;;;2.10;90.50;;;;;;5092310;28;20048;-69
2021/04/06 01:38:14;;;;;;;10.07;1.48;;;2.20;90.50;;;;;;5091542;28;20056;-70
2021/04/06 01:40:43;;;;;;;12.07;2.13;;;2.20;90.30;;;;;;5092192;28;20394;-69
2021/04/06 01:43:11;;;;;;;7.65;2.05;;;2.30;90.30;;;;;;5092286;28;20048;-69
2021/04/06 01:45:44;;;;;;;13.07;1.88;;;2.30;90.10;;;;;;5091083;28;20123;-69
2021/04/06 01:48:12;;;;;;;14.60;2.50;;;2.40;90.10;;;;;;5092456;28;20061;-69
2021/04/06 01:50:37;;;;;;;12.45;1.88;;;2.50;90.00;;;;;;5091717;28;20047;-70
2021/04/06 01:53:03;;;;;;;11.70;2.67;;;2.50;90.00;;;;;;5091431;28;20097;-69
2021/04/06 01:55:34;;;;;;;10.83;2.27;;;2.60;90.00;;;;;;5091450;28;20048;-69
2021/04/06 01:58:01;;;;;;;11.23;2.08;;;2.70;89.60;;;;;;5092003;28;20051;-69
2021/04/06 02:00:46;;;;;;;14.83;2.20;;;2.70;89.40;;;;;;5090914;28;20044;-70
2021/04/06 02:03:16;;;;;;;13.82;2.72;;;2.70;89.10;;;;;;5091732;28;20333;-69
2021/04/06 02:05:42;;;;;;;14.70;2.60;;;2.70;88.80;;;;;;5090978;28;20155;-69
2021/04/06 02:08:12;;;;;;;8.10;2.13;;;2.70;88.60;;;;;;5091820;28;20802;-70
2021/04/06 02:10:38;;;;;;;6.82;1.67;;;2.70;87.00;;;;;;5091514;28;20298;-69
2021/04/06 02:13:14;;;;;;;13.87;1.90;;;2.80;84.30;;;;;;5091412;28;20104;-70
2021/04/06 02:15:52;;;;;;;8.40;1.93;;;2.70;83.80;;;;;;5091633;28;20126;-69
2021/04/06 02:18:29;;;;;;;9.80;2.17;;;2.80;83.00;;;;;;5091607;28;20298;-69
2021/04/06 02:21:00;;;;;;;11.70;2.42;;;2.90;83.10;;;;;;5091139;28;20302;-69
2021/04/06 02:23:36;;;;;;;12.45;2.60;;;2.90;83.00;;;;;;5091678;28;20048;-69
2021/04/06 02:26:02;;;;;;;12.07;1.85;;;3.00;82.60;;;;;;5091915;28;20122;-69
2021/04/06 02:28:28;;;;;;;5.03;1.40;;;3.00;82.70;;;;;;5090486;28;20144;-69
2021/04/06 02:30:55;;;;;;;6.97;1.70;;;3.00;82.60;;;;;;5091663;28;20040;-69
2021/04/06 02:33:35;;;;;;;15.70;2.10;;;3.00;82.40;;;;;;5091385;28;20048;-69
2021/04/06 02:36:07;;;;;;;10.90;1.83;;;3.00;82.00;;;;;;5091115;28;20377;-69
2021/04/06 02:38:34;;;;;;;7.43;2.10;;;3.00;82.40;;;;;;5091261;28;20036;-69
2021/04/06 02:41:04;;;;;;;9.77;2.00;;;3.00;82.10;;;;;;5091003;28;20052;-69
2021/04/06 02:43:43;;;;;;;9.13;1.70;;;3.10;82.10;;;;;;5090996;28;20324;-69
2021/04/06 02:46:10;;;;;;;9.77;2.25;;;3.10;82.10;;;;;;5091516;28;20294;-69
2021/04/06 02:48:36;;;;;;;18.33;2.30;;;3.10;81.90;;;;;;5090523;28;20105;-69
2021/04/06 02:51:02;;;;;;;16.37;2.23;;;3.10;82.00;;;;;;5091487;28;20306;-69
2021/04/06 02:53:31;;;;;;;11.03;2.47;;;3.00;81.70;;;;;;5090754;28;20048;-69
2021/04/06 02:55:58;;;;;;;15.77;2.07;;;3.00;82.20;;;;;;5090843;28;20042;-68
2021/04/06 02:58:24;;;;;;;14.23;2.73;;;3.00;82.40;;;;;;5091121;28;20294;-69
2021/04/06 03:00:50;;;;;;;17.13;2.70;;;3.00;82.40;;;;;;5091025;28;20302;-69
2021/04/06 03:03:24;;;;;;;12.10;2.47;;;2.90;82.80;;;;;;5090425;28;20052;-69
2021/04/06 03:06:00;;;;;;;17.80;2.70;;;2.90;82.90;;;;;;5091188;28;20290;-69
2021/04/06 03:08:31;;;;;;;16.13;2.40;;;3.00;83.00;;;;;;5091116;28;20347;-69
2021/04/06 03:10:56;;;;;;;11.30;2.57;;;3.00;83.00;;;;;;5090387;28;20811;-69
2021/04/06 03:13:25;;;;;;;11.30;2.47;;;2.90;82.90;;;;;;5090806;28;20322;-69
2021/04/06 03:15:51;;;;;;;14.17;2.30;;;3.00;83.20;;;;;;5091246;28;20048;-68
2021/04/06 03:18:18;;;;;;;16.90;3.20;;;2.90;83.30;;;;;;5090282;28;20293;-69
2021/04/06 03:20:44;;;;;;;10.47;1.90;;;2.90;83.10;;;;;;5090752;28;20682;-69
2021/04/06 03:23:10;;;;;;;13.80;2.93;;;2.80;83.20;;;;;;5090661;28;20310;-69
2021/04/06 03:25:37;;;;;;;14.67;2.63;;;2.80;83.40;;;;;;5090778;28;20355;-69
2021/04/06 03:28:11;;;;;;;8.97;2.57;;;2.80;83.60;;;;;;5091341;28;20298;-69
2021/04/06 03:30:38;;;;;;;17.17;2.70;;;2.80;83.70;;;;;;5090021;28;20779;-69
2021/04/06 03:33:11;;;;;;;13.33;2.40;;;2.80;83.70;;;;;;5091200;28;20291;-69
2021/04/06 03:35:39;;;;;;;15.97;2.60;;;2.80;83.90;;;;;;5090793;28;20377;-69
2021/04/06 03:38:07;;;;;;;14.25;3.28;;;2.80;83.70;;;;;;5090236;28;20298;-69
2021/04/06 03:40:35;;;;;;;15.90;2.63;;;2.80;83.50;;;;;;5090604;28;20044;-69
2021/04/06 03:43:13;;;;;;;11.60;2.50;;;2.80;83.40;;;;;;5094405;28;20413;-69
2021/04/06 03:46:01;;;;;;;12.30;2.33;;;2.80;83.40;;;;;;5093476;28;20886;-69
2021/04/06 03:48:33;;;;;;;14.60;2.57;;;2.90;83.30;;;;;;5093988;28;20367;-70
2021/04/06 03:50:59;;;;;;;16.23;3.00;;;2.90;83.10;;;;;;5094290;28;20302;-69
2021/04/06 03:53:36;;;;;;;13.07;2.60;;;2.90;82.90;;;;;;5093327;28;20500;-69
2021/04/06 03:56:07;;;;;;;18.77;2.53;;;2.90;82.80;;;;;;5094522;28;20302;-69
2021/04/06 03:58:42;;;;;;;12.93;3.20;;;3.00;82.80;;;;;;5093052;28;20640;-69
2021/04/06 04:01:08;;;;;;;13.33;2.93;;;3.00;82.80;;;;;;5094289;28;20323;-69
2021/04/06 04:03:36;;;;;;;11.87;1.97;;;3.00;82.60;;;;;;5093570;28;20317;-69
2021/04/06 04:06:03;;;;;;;14.87;2.90;;;3.00;82.60;;;;;;5093523;28;20047;-69
2021/04/06 04:08:28;;;;;;;12.23;2.53;;;3.00;82.40;;;;;;5093608;28;20293;-70
2021/04/06 04:10:54;;;;;;;10.67;2.80;;;3.00;82.00;;;;;;5094191;28;20693;-70
2021/04/06 04:13:20;;;;;;;12.50;2.30;;;2.90;81.40;;;;;;5093012;28;20044;-69
2021/04/06 04:15:46;;;;;;;12.40;2.53;;;2.90;81.30;;;;;;5093776;28;20500;-69
2021/04/06 04:18:12;;;;;;;9.20;2.20;;;2.80;81.30;;;;;;5093935;28;20051;-69
2021/04/06 04:20:37;;;;;;;9.37;2.20;;;2.90;81.30;;;;;;5093172;28;20044;-69
2021/04/06 04:23:03;;;;;;;9.67;2.00;;;2.80;81.40;;;;;;5093713;28;20048;-69
2021/04/06 04:25:29;;;;;;;8.73;1.70;;;2.80;81.20;;;;;;5093222;28;20052;-69
2021/04/06 04:27:55;;;;;;;10.43;2.10;;;2.80;81.00;;;;;;5093031;28;20048;-69
2021/04/06 04:30:46;;;;;;;8.53;2.30;;;2.70;81.00;;;;;;5093309;28;20447;-69
2021/04/06 04:33:13;;;;;;;12.60;2.05;;;2.70;81.00;;;;;;5093330;28;20048;-69
2021/04/06 04:35:38;;;;;;;16.75;3.35;;;2.70;81.00;;;;;;5092494;28;20044;-70
2021/04/06 04:38:07;;;;;;;10.67;2.00;;;2.70;80.90;;;;;;5093560;28;20113;-69
2021/04/06 04:40:33;;;;;;;11.17;2.27;;;2.70;81.00;;;;;;5092035;28;20123;-69
2021/04/06 04:42:59;;;;;;;12.70;2.30;;;2.60;81.00;;;;;;5093557;28;20298;-69
2021/04/06 04:45:25;;;;;;;14.20;2.20;;;2.60;81.10;;;;;;5093339;28;20702;-68
2021/04/06 04:47:51;;;;;;;12.13;2.27;;;2.60;81.20;;;;;;5092546;28;20072;-69
2021/04/06 04:50:19;;;;;;;13.70;2.28;;;2.60;81.20;;;;;;5092656;28;20403;-69
2021/04/06 04:52:46;;;;;;;11.63;2.30;;;2.60;81.30;;;;;;5092633;28;20493;-69
2021/04/06 04:55:14;;;;;;;11.40;2.47;;;2.60;81.40;;;;;;5092099;28;20340;-69
2021/04/06 04:57:40;;;;;;;11.88;2.65;;;2.60;81.50;;;;;;5093089;28;20040;-69
2021/04/06 05:00:07;;;;;;;11.20;2.23;;;2.60;81.50;;;;;;5093212;28;20097;-69
2021/04/06 05:02:33;;;;;;;9.05;1.98;;;2.60;81.50;;;;;;5091741;28;20090;-68
2021/04/06 05:04:59;;;;;;;14.73;2.80;;;2.70;81.50;;;;;;5092805;28;20524;-68
2021/04/06 05:07:25;;;;;;;10.20;2.10;;;2.70;81.40;;;;;;5092546;28;20417;-68
2021/04/06 05:09:51;;;;;;;7.73;2.00;;;2.70;81.40;;;;;;5091743;28;20058;-68
2021/04/06 05:12:17;;;;;;;13.20;2.33;;;2.80;81.70;;;;;;5092653;28;20286;-68
2021/04/06 05:14:44;;;;;;;11.57;2.13;;;2.90;81.80;;;;;;5092562;28;20097;-69
2021/04/06 05:17:10;;;;;;;12.87;2.20;;;2.90;81.80;;;;;;5092079;28;20302;-69
2021/04/06 05:19:36;;;;;;;11.37;2.57;;;3.00;81.60;;;;;;5099979;28;20302;-68
2021/04/06 05:22:01;;;;;;;9.70;2.40;;;3.10;81.40;;;;;;5103189;28;20040;-68
2021/04/06 05:24:27;;;;;;;6.53;2.13;;;3.10;81.20;;;;;;5101321;28;20055;-68
2021/04/06 05:26:53;;;;;;;14.33;2.10;;;3.10;81.20;;;;;;5104182;28;20484;-68
2021/04/06 05:29:19;;;;;;;11.53;2.13;;;3.10;81.50;;;;;;5103192;28;20411;-68
2021/04/06 05:31:45;;;;;;;12.57;2.27;;;3.00;81.90;;;;;;5099787;28;20857;-68
2021/04/06 05:34:10;;;;;;;7.87;2.13;;;3.00;81.90;;;;;;5102874;28;20047;-69
2021/04/06 05:36:36;;;;;;;9.13;2.23;;;2.90;82.00;;;;;;5102461;28;20044;-68
2021/04/06 05:39:02;;;;;;;10.03;1.90;;;2.90;81.80;;;;;;5106096;28;20039;-68
2021/04/06 05:41:28;;;;;;;4.27;1.60;;;2.90;81.40;;;;;;5101519;28;20097;-68
2021/04/06 05:44:02;;;;;;;10.30;2.13;;;2.90;81.30;;;;;;5100613;28;20303;-68
2021/04/06 05:46:34;;;;;;;9.07;2.10;;;2.90;81.10;;;;;;5101445;28;20044;-68
2021/04/06 05:49:05;;;;;;;6.87;1.60;;;2.90;81.20;;;;;;5100911;28;20359;-68
2021/04/06 05:51:31;;;;;;;8.43;1.58;;;2.90;81.50;;;;;;5100535;28;20305;-68
2021/04/06 05:53:57;;;;;;;5.53;1.73;;;2.90;81.40;;;;;;5105944;28;20131;-69
2021/04/06 05:56:23;;;;;;;9.10;1.73;;;2.90;81.30;;;;;;5102292;28;20059;-68
2021/04/06 05:58:48;;;;;;;5.97;1.40;;;2.80;81.00;;;;;;5100778;28;20538;-68
2021/04/06 06:01:16;;;;;;;8.03;1.80;;;2.90;81.00;;;;;;5100436;28;20418;-69
2021/04/06 06:03:41;;;;;;;7.20;1.27;;;2.90;81.00;;;;;;5100210;28;20381;-69
2021/04/06 06:06:07;;;;;;;7.00;1.50;;;3.00;81.30;;;;;;5105861;28;20706;-68
2021/04/06 06:08:34;;;;;;;8.57;1.77;;;3.10;81.20;;;;;;5111669;28;20492;-69
2021/04/06 06:11:01;;;;;;;10.63;2.50;;;3.30;81.50;;;;;;5112216;28;20096;-68
2021/04/06 06:13:28;;;;;;;11.03;3.30;;;3.40;81.40;;;;;;5110531;28;20818;-69
2021/04/06 06:16:10;;;;;;;8.20;1.70;;;3.50;81.30;;;;;;5112269;28;20366;-68
2021/04/06 06:19:10;;;;;;;4.40;1.50;;;3.50;82.00;;;;;;5105544;28;20310;-69
2021/04/06 06:21:40;;;;;;;13.43;1.77;;;3.60;81.00;;;;;;5096793;28;20051;-69
2021/04/06 06:24:07;;;;;;;5.57;1.73;;;3.60;80.30;;;;;;5091830;28;20325;-69
2021/04/06 06:26:33;;;;;;;4.80;1.33;;;3.50;79.90;;;;;;5090315;28;20407;-70
2021/04/06 06:29:18;;;;;;;8.30;1.73;;;3.50;79.80;;;;;;5091485;28;20297;-69
2021/04/06 06:31:47;;;;;;;6.03;1.60;;;3.60;79.40;;;;;;5091159;28;20106;-69
2021/04/06 06:34:30;;;;;;;5.60;1.80;;;3.60;79.10;;;;;;5090674;28;20301;-69
2021/04/06 06:37:07;;;;;;;6.67;1.37;;;3.60;78.70;;;;;;5091498;28;20309;-69
2021/04/06 06:39:34;;;;;;;6.97;1.40;;;3.80;79.50;;;;;;5090734;28;20321;-69
2021/04/06 06:42:09;;;;;;;8.83;1.73;;;4.00;79.00;;;;;;5090789;28;20333;-69
2021/04/06 06:44:35;;;;;;;9.57;1.50;;;4.30;78.90;;;;;;5090687;28;20717;-69
2021/04/06 06:47:12;;;;;;;6.03;1.80;;;4.50;77.80;;;;;;5090647;28;20298;-69
2021/04/06 06:49:40;;;;;;;7.67;2.10;;;4.50;76.90;;;;;;5091014;28;20309;-69
2021/04/06 06:52:27;;;;;;;8.03;1.60;;;4.30;77.40;;;;;;5091298;28;20372;-69
2021/04/06 06:54:57;;;;;;;10.47;2.13;;;4.20;78.10;;;;;;5090690;28;20329;-69
2021/04/06 06:57:32;;;;;;;6.50;1.87;;;4.10;78.20;;;;;;5091229;28;20647;-69
2021/04/06 07:00:24;;;;;;;4.37;1.50;;;4.00;77.80;;;;;;5091298;28;20306;-69
2021/04/06 07:02:50;;;;;;;6.07;1.35;;;4.00;77.40;;;;;;5090487;28;20312;-69
2021/04/06 07:05:22;;;;;;;8.73;2.00;;;4.00;77.10;;;;;;5090895;28;20058;-69
2021/04/06 07:08:03;;;;;;;6.00;2.20;;;4.10;77.20;;;;;;5091184;28;20700;-69
2021/04/06 07:10:32;;;;;;;8.10;2.45;;;4.20;76.90;;;;;;5090666;28;20059;-69
2021/04/06 07:13:04;;;;;;;6.90;1.50;;;4.30;77.10;;;;;;5091524;28;20051;-69
2021/04/06 07:15:30;;;;;;;6.63;1.70;;;4.30;77.50;;;;;;5090013;28;20347;-69
2021/04/06 07:18:03;;;;;;;4.77;1.67;;;4.40;78.20;;;;;;5094777;28;20298;-69
2021/04/06 07:20:32;;;;;;;6.87;1.90;;;4.50;78.00;;;;;;5094281;28;20306;-68
2021/04/06 07:23:01;;;;;;;4.53;1.30;;;4.50;77.80;;;;;;5094109;28;20775;-68
2021/04/06 07:25:27;;;;;;;5.77;1.30;;;4.40;77.70;;;;;;5094237;28;20775;-69
2021/04/06 07:27:53;;;;;;;5.40;1.00;;;4.30;77.70;;;;;;5094831;28;20801;-69
2021/04/06 07:30:20;;;;;;;5.93;1.37;;;4.20;77.90;;;;;;5093628;28;20814;-68
2021/04/06 07:32:47;;;;;;;4.73;1.30;;;4.10;77.80;;;;;;5094422;28;20304;-68
2021/04/06 07:35:13;;;;;;;6.47;1.73;;;4.20;78.40;;;;;;5094451;28;20377;-68
2021/04/06 07:37:41;;;;;;;5.87;1.30;;;4.40;77.50;;;;;;5093755;28;20286;-69
2021/04/06 07:40:12;;;;;;;4.33;1.10;;;4.50;77.30;;;;;;5094977;28;20321;-69
2021/04/06 07:42:41;;;;;;;4.28;1.10;;;4.60;77.30;;;;;;5094503;28;20290;-68
2021/04/06 07:45:22;;;;;;;10.90;1.63;;;4.70;77.00;;;;;;5093941;28;20105;-69
2021/04/06 07:47:49;;;;;;;5.90;1.52;;;4.80;77.00;;;;;;5094397;28;20373;-68
2021/04/06 07:50:33;;;;;;;4.93;1.57;;;4.80;76.40;;;;;;5093296;28;20058;-68
2021/04/06 07:53:30;;;;;;;5.53;1.60;;;5.00;76.20;;;;;;5095814;28;20317;-68
2021/04/06 07:56:00;;;;;;;1.63;1.03;;;5.00;73.80;;;;;;5097622;28;20301;-68
2021/04/06 07:58:45;;;;;;;4.10;1.40;;;4.80;74.40;;;;;;5113518;28;20358;-68
2021/04/06 08:01:27;;;;;;;2.70;1.00;;;4.60;74.20;;;;;;5114632;28;20316;-69
2021/04/06 08:03:53;;;;;;;5.17;1.40;;;4.50;74.90;;;;;;5114623;28;20313;-69
2021/04/06 08:06:27;;;;;;;3.07;1.13;;;4.50;74.70;;;;;;5113510;28;20293;-68
2021/04/06 08:08:54;;;;;;;3.77;1.20;;;4.50;74.30;;;;;;5114453;28;20516;-68
2021/04/06 08:11:33;;;;;;;4.90;1.33;;;4.40;74.30;;;;;;5113707;28;20293;-68
2021/04/06 08:13:59;;;;;;;4.57;1.23;;;4.50;74.60;;;;;;5114764;28;20297;-68
2021/04/06 08:16:24;;;;;;;3.73;1.50;;;4.80;74.80;;;;;;5114142;28;20442;-68
2021/04/06 08:18:55;;;;;;;3.40;1.37;;;5.50;74.80;;;;;;5113476;28;20134;-69
2021/04/06 08:21:25;;;;;;;5.43;1.40;;;6.00;72.10;;;;;;5113892;28;20515;-68
2021/04/06 08:23:52;;;;;;;5.77;1.40;;;6.20;71.90;;;;;;5113760;28;20400;-68
2021/04/06 08:26:35;;;;;;;7.27;1.70;;;6.30;70.80;;;;;;5113176;28;20317;-68
2021/04/06 08:29:27;;;;;;;4.77;1.40;;;6.40;70.30;;;;;;5113715;28;20831;-69
2021/04/06 08:32:13;;;;;;;5.33;1.67;;;6.70;68.60;;;;;;5114175;28;20304;-69
2021/04/06 08:34:52;;;;;;;7.07;1.50;;;6.90;69.60;;;;;;5113187;28;20305;-68
2021/04/06 08:37:37;;;;;;;4.53;1.67;;;6.60;69.50;;;;;;5113632;28;20293;-68
2021/04/06 08:40:08;;;;;;;6.47;1.80;;;6.30;70.90;;;;;;5113236;28;20813;-68
2021/04/06 08:42:35;;;;;;;5.23;1.47;;;6.20;72.30;;;;;;5113497;28;20301;-68
2021/04/06 08:45:02;;;;;;;4.60;1.30;;;6.40;73.00;;;;;;5113840;28;20401;-69
2021/04/06 08:47:46;;;;;;;7.53;1.60;;;6.70;73.30;;;;;;5112307;28;20292;-69
2021/04/06 08:50:32;;;;;;;6.37;1.63;;;6.60;72.20;;;;;;5113216;28;20334;-69
2021/04/06 08:52:58;;;;;;;5.03;1.60;;;6.10;72.20;;;;;;5113899;28;20297;-68
2021/04/06 08:55:25;;;;;;;6.97;1.60;;;5.80;73.50;;;;;;5112735;28;20293;-69
2021/04/06 08:57:58;;;;;;;4.73;1.20;;;5.80;74.60;;;;;;5113309;28;20104;-68
2021/04/06 09:00:25;;;;;;;5.37;1.07;;;6.10;74.80;;;;;;5113227;28;20384;-68
2021/04/06 09:03:04;;;;;;;4.53;1.43;;;6.20;74.00;;;;;;5112400;28;20347;-69
2021/04/06 09:05:30;;;;;;;7.63;2.40;;;6.50;74.40;;;;;;5112992;28;20296;-68
2021/04/06 09:07:56;;;;;;;5.43;2.20;;;6.70;73.20;;;;;;5112890;28;20320;-68
2021/04/06 09:10:21;;;;;;;6.33;2.00;;;6.80;73.00;;;;;;5113120;28;20181;-68
2021/04/06 09:12:50;;;;;;;5.83;1.73;;;6.80;72.60;;;;;;5113078;28;20058;-69
2021/04/06 09:15:20;;;;;;;5.20;1.43;;;6.80;71.60;;;;;;5112191;28;20122;-69
2021/04/06 09:17:45;;;;;;;6.23;1.40;;;6.70;71.40;;;;;;5112816;28;20320;-68
2021/04/06 09:20:14;;;;;;;6.23;1.73;;;6.80;71.80;;;;;;5112953;28;20754;-69
2021/04/06 09:22:50;;;;;;;9.37;2.10;;;6.80;71.40;;;;;;5112285;28;20455;-68
2021/04/06 09:25:25;;;;;;;10.57;2.40;;;6.70;71.10;;;;;;5112662;28;20341;-68
2021/04/06 09:27:59;;;;;;;11.23;1.90;;;6.70;71.00;;;;;;5112869;28;20309;-68
2021/04/06 09:30:32;;;;;;;5.27;1.87;;;6.70;71.10;;;;;;5112024;28;20325;-68
2021/04/06 09:33:00;;;;;;;9.20;2.07;;;6.70;71.30;;;;;;5113087;28;20297;-69
2021/04/06 09:35:27;;;;;;;6.53;1.83;;;6.80;71.60;;;;;;5112261;28;20708;-72
2021/04/06 09:37:54;;;;;;;8.13;1.70;;;6.70;71.10;;;;;;5111959;28;20358;-68
2021/04/06 09:40:35;;;;;;;6.03;2.10;;;6.70;71.40;;;;;;5111697;28;20044;-68
2021/04/06 09:43:01;;;;;;;6.50;1.30;;;6.90;72.00;;;;;;5112172;28;20705;-71
2021/04/06 09:45:28;;;;;;;8.73;1.83;;;7.20;71.90;;;;;;5108774;28;20044;-71
2021/04/06 09:47:54;;;;;;;7.57;1.57;;;7.10;71.30;;;;;;5109375;28;20773;-70
2021/04/06 09:50:19;;;;;;;6.43;1.47;;;6.70;71.50;;;;;;5111269;28;20308;-69
2021/04/06 09:52:46;;;;;;;4.27;1.40;;;6.10;71.90;;;;;;5112125;28;20100;-70
2021/04/06 09:55:12;;;;;;;6.20;1.47;;;5.70;72.50;;;;;;5111861;28;20119;-69
2021/04/06 09:57:42;;;;;;;5.83;1.97;;;5.50;73.20;;;;;;5111425;28;20293;-70
2021/04/06 10:00:18;;;;;;;4.10;2.17;;;5.50;73.70;;;;;;5112424;28;20753;-71
2021/04/06 10:03:03;;;;;;;6.37;1.93;;;5.50;73.90;;;;;;5112149;28;20762;-70
2021/04/06 10:05:29;;;;;;;8.37;1.77;;;5.60;75.30;;;;;;5110728;28;20401;-70
2021/04/06 10:07:55;;;;;;;12.30;2.60;;;5.80;75.20;;;;;;5111980;28;20785;-69
2021/04/06 10:10:26;;;;;;;12.23;2.03;;;5.90;74.20;;;;;;5111967;28;20075;-70
2021/04/06 10:12:53;;;;;;;7.80;2.28;;;6.00;74.40;;;;;;5111572;28;20043;-69
2021/04/06 10:15:24;;;;;;;9.67;1.90;;;6.10;74.30;;;;;;5093651;28;20047;-70
2021/04/06 10:17:51;;;;;;;9.20;1.47;;;6.30;73.70;;;;;;5111838;28;20293;-70
2021/04/06 10:20:20;;;;;;;5.87;1.20;;;6.30;73.00;;;;;;5110899;28;20309;-69
2021/04/06 10:22:55;;;;;;;9.67;1.77;;;6.20;72.60;;;;;;5111890;28;20312;-70
2021/04/06 10:25:27;;;;;;;13.70;2.33;;;6.00;72.50;;;;;;5110782;28;20850;-71
2021/04/06 10:27:57;;;;;;;18.23;2.50;;;5.70;72.70;;;;;;5111952;28;20320;-70
2021/04/06 10:30:43;;;;;;;11.00;1.97;;;5.50;73.00;;;;;;5111972;28;20150;-70
2021/04/06 10:33:18;;;;;;;7.80;2.20;;;5.40;72.60;;;;;;5111083;28;20762;-70
2021/04/06 10:35:51;;;;;;;5.20;1.70;;;5.30;73.50;;;;;;5111797;28;20297;-70
2021/04/06 10:38:16;;;;;;;;;;;5.40;73.90;;;;;;5112061;28;20292;-70
2021/04/06 10:40:43;;;;;;;7.13;1.83;;;5.70;73.70;;;;;;5110647;28;19919;-69
2021/04/06 10:43:16;;;;;;;8.43;1.60;;;6.00;73.10;;;;;;5111577;28;20500;-70
2021/04/06 10:46:03;;;;;;;12.83;2.30;;;6.30;71.90;;;;;;5111568;28;20368;-71
2021/04/06 10:48:32;;;;;;;5.83;1.77;;;6.60;70.70;;;;;;5111063;28;20336;-70
2021/04/06 10:51:13;;;;;;;6.67;1.97;;;6.80;70.30;;;;;;5113477;28;20820;-71
2021/04/06 10:53:41;;;;;;;12.27;1.80;;;7.00;67.30;;;;;;5114801;28;20289;-70
2021/04/06 10:56:14;;;;;;;8.97;1.77;;;6.90;66.60;;;;;;5116074;28;20297;-70
2021/04/06 10:58:57;;;;;;;5.80;1.97;;;6.50;68.20;;;;;;5115981;28;20654;-69
2021/04/06 11:01:49;;;;;;;9.73;2.90;;;6.00;70.20;;;;;;5114658;28;20737;-70
2021/04/06 11:04:17;;;;;;;6.40;2.03;;;5.40;71.70;;;;;;5115432;28;20313;-70
2021/04/06 11:06:48;;;;;;;9.97;2.37;;;5.10;73.10;;;;;;5115503;28;20063;-70
2021/04/06 11:09:16;;;;;;;7.25;1.98;;;4.80;73.70;;;;;;5114590;28;20298;-70
2021/04/06 11:11:44;;;;;;;7.70;2.37;;;4.80;74.70;;;;;;5115286;28;20044;-70
2021/04/06 11:14:13;;;;;;;8.00;1.60;;;5.00;74.80;;;;;;5115243;28;20301;-70
2021/04/06 11:16:40;;;;;;;6.17;1.77;;;5.30;74.70;;;;;;5114858;28;20315;-69
2021/04/06 11:19:14;;;;;;;7.27;1.90;;;5.60;74.40;;;;;;5115499;28;20333;-70
2021/04/06 11:21:46;;;;;;;9.53;2.03;;;5.90;73.50;;;;;;5114343;28;20774;-71
2021/04/06 11:24:14;;;;;;;10.90;2.60;;;6.20;72.50;;;;;;5114704;28;20319;-70
2021/04/06 11:26:40;;;;;;;7.43;1.70;;;6.50;71.40;;;;;;5114738;28;20293;-70
2021/04/06 11:29:08;;;;;;;8.33;1.83;;;6.60;69.80;;;;;;5114445;28;20297;-69
2021/04/06 11:31:36;;;;;;;13.10;2.50;;;6.70;68.80;;;;;;5114767;28;20304;-69
2021/04/06 11:34:03;;;;;;;10.20;2.47;;;6.90;67.70;;;;;;5115054;28;20301;-71
2021/04/06 11:36:30;;;;;;;9.10;2.13;;;7.00;66.00;;;;;;5113299;28;20301;-71
2021/04/06 11:38:55;;;;;;;9.57;2.20;;;7.00;64.70;;;;;;5115015;28;20304;-71
2021/04/06 11:41:21;;;;;;;9.33;1.93;;;7.00;65.50;;;;;;5114562;28;20293;-70
2021/04/06 11:43:47;;;;;;;10.27;2.17;;;7.10;66.00;;;;;;5114142;28;20052;-71
2021/04/06 11:46:15;;;;;;;10.00;2.23;;;7.30;64.30;;;;;;5114816;28;20471;-69
2021/04/06 11:48:43;;;;;;;9.67;2.63;;;7.40;64.30;;;;;;5114579;28;20302;-69
2021/04/06 11:51:14;;;;;;;7.40;2.53;;;7.40;63.10;;;;;;5113910;28;20340;-71
2021/04/06 11:53:40;;;;;;;11.87;2.53;;;7.30;63.00;;;;;;5114541;28;20376;-68
2021/04/06 11:56:06;;;;;;;9.67;2.60;;;7.10;62.70;;;;;;5114548;28;20853;-68
2021/04/06 11:58:32;;;;;;;8.43;1.90;;;7.10;63.80;;;;;;5113183;28;20801;-71
2021/04/06 12:00:58;;;;;;;12.53;2.60;;;7.20;61.80;;;;;;5114622;28;20297;-71
2021/04/06 12:03:25;;;;;;;9.00;1.80;;;7.40;62.90;;;;;;5113126;28;20048;-70
2021/04/06 12:05:50;;;;;;;14.60;2.60;;;7.50;61.60;;;;;;5114059;28;20047;-70
2021/04/06 12:08:16;;;;;;;7.77;1.87;;;7.50;61.10;;;;;;5114093;28;20349;-72
2021/04/06 12:10:43;;;;;;;11.33;2.70;;;7.50;61.00;;;;;;5113474;28;20130;-70
2021/04/06 12:13:09;;;;;;;11.30;2.47;;;7.40;61.20;;;;;;5114390;28;20055;-71
2021/04/06 12:15:35;;;;;;;14.30;2.10;;;7.10;61.50;;;;;;5114017;28;20646;-69
2021/04/06 12:18:00;;;;;;;9.43;2.03;;;6.60;62.60;;;;;;5113752;28;20089;-69
2021/04/06 12:20:26;;;;;;;8.97;2.20;;;6.10;64.20;;;;;;5114147;28;20450;-72
2021/04/06 12:22:52;;;;;;;8.00;1.90;;;5.70;65.60;;;;;;5114027;28;20051;-68
2021/04/06 12:25:18;;;;;;;8.47;1.73;;;5.50;67.00;;;;;;5112863;28;20048;-70
2021/04/06 12:27:45;;;;;;;9.37;2.10;;;5.30;66.70;;;;;;5113931;28;20169;-68
2021/04/06 12:30:11;;;;;;;11.73;2.90;;;5.40;67.40;;;;;;5113986;28;20120;-69
2021/04/06 13:16:04;;;;;;;7.50;1.80;;;7.40;57.10;;;;;;5129565;27;20400;-68
2021/04/06 13:18:31;;;;;;;5.97;1.60;;;7.10;56.10;;;;;;5128760;28;20297;-68
2021/04/06 13:20:57;;;;;;;5.97;1.57;;;7.20;56.80;;;;;;5128991;27;20843;-69
2021/04/06 13:23:23;;;;;;;8.17;2.17;;;7.20;55.90;;;;;;5129785;27;20300;-68
2021/04/06 13:25:49;;;;;;;9.47;3.30;;;7.00;56.20;;;;;;5128716;27;20301;-68
2021/04/06 13:28:15;;;;;;;11.50;2.13;;;6.90;56.70;;;;;;5129057;27;20043;-68
2021/04/06 13:30:41;;;;;;;8.83;2.17;;;6.70;57.00;;;;;;5129096;27;20296;-69
2021/04/06 13:33:07;;;;;;;5.30;1.50;;;6.70;57.40;;;;;;5128568;27;20095;-68
2021/04/06 13:35:32;;;;;;;10.07;2.43;;;6.60;57.80;;;;;;5129677;27;20098;-71
2021/04/06 13:37:58;;;;;;;8.37;2.10;;;6.60;58.40;;;;;;5128873;27;20130;-72
2021/04/06 13:40:24;;;;;;;9.00;1.83;;;6.70;58.70;;;;;;5128783;28;20048;-68
2021/04/06 13:42:50;;;;;;;11.37;2.53;;;6.60;58.60;;;;;;5129008;27;20130;-72
2021/04/06 13:45:23;;;;;;;13.40;2.53;;;6.60;59.00;;;;;;5128838;27;20448;-74
2021/04/06 13:47:50;;;;;;;6.57;2.37;;;6.40;59.40;;;;;;5128383;27;20297;-73
2021/04/06 13:50:16;;;;;;;6.47;1.20;;;6.40;59.70;;;;;;5129141;27;20630;-74